sensor_id;sensor_type;location;lat;lon;timestamp;P1;durP1;ratioP1;P2;durP2;ratioP2
16193;SDS011;8204;53.582;10.080;2023-06-22T00:01:58;6.80;;;5.30;;
16193;SDS011;8204;53.582;10.080;2023-06-22T00:04:23;4.57;;;4.20;;
16193;SDS011;8204;53.582;10.080;2023-06-22T00:06:49;4.33;;;4.03;;
16193;SDS011;8204;53.582;10.080;2023-06-22T00:09:15;5.07;;;4.67;;
16193;SDS011;8204;53.582;10.080;2023-06-22T00:11:40;5.27;;;4.87;;
16193;SDS011;8204;53.582;10.080;2023-06-22T00:14:06;4.90;;;4.50;;
16193;SDS011;8204;53.582;10.080;2023-06-22T00:16:32;5.07;;;4.67;;
16193;SDS011;8204;53.582;10.080;2023-06-22T00:18:58;5.20;;;4.70;;
16193;SDS011;8204;53.582;10.080;2023-06-22T00:21:25;5.10;;;4.70;;
16193;SDS011;8204;53.582;10.080;2023-06-22T00:23:53;5.03;;;4.63;;
16193;SDS011;8204;53.582;10.080;2023-06-22T00:26:19;5.40;;;4.90;;
16193;SDS011;8204;53.582;10.080;2023-06-22T00:28:45;4.87;;;4.50;;
16193;SDS011;8204;53.582;10.080;2023-06-22T00:31:11;5.07;;;4.67;;
16193;SDS011;8204;53.582;10.080;2023-06-22T00:33:37;5.07;;;4.77;;
16193;SDS011;8204;53.582;10.080;2023-06-22T00:36:04;5.27;;;4.87;;
16193;SDS011;8204;53.582;10.080;2023-06-22T00:38:29;6.33;;;5.27;;
16193;SDS011;8204;53.582;10.080;2023-06-22T00:40:55;5.30;;;4.90;;
16193;SDS011;8204;53.582;10.080;2023-06-22T00:43:20;5.40;;;4.90;;
16193;SDS011;8204;53.582;10.080;2023-06-22T00:45:45;6.00;;;5.07;;
16193;SDS011;8204;53.582;10.080;2023-06-22T00:48:11;5.37;;;4.97;;
16193;SDS011;8204;53.582;10.080;2023-06-22T00:50:39;5.17;;;4.87;;
16193;SDS011;8204;53.582;10.080;2023-06-22T00:53:07;5.30;;;4.90;;
16193;SDS011;8204;53.582;10.080;2023-06-22T01:55:34;5.93;;;5.43;;
16193;SDS011;8204;53.582;10.080;2023-06-22T01:57:59;6.27;;;5.77;;
16193;SDS011;8204;53.582;10.080;2023-06-22T02:00:25;6.37;;;5.80;;
16193;SDS011;8204;53.582;10.080;2023-06-22T02:03:31;6.40;;;5.47;;
16193;SDS011;8204;53.582;10.080;2023-06-22T02:05:56;5.63;;;5.17;;
16193;SDS011;8204;53.582;10.080;2023-06-22T02:08:28;6.03;;;5.50;;
16193;SDS011;8204;53.582;10.080;2023-06-22T02:10:57;5.97;;;5.57;;
16193;SDS011;8204;53.582;10.080;2023-06-22T02:13:24;5.90;;;5.50;;
16193;SDS011;8204;53.582;10.080;2023-06-22T02:15:50;6.20;;;5.70;;
16193;SDS011;8204;53.582;10.080;2023-06-22T02:18:16;6.07;;;5.57;;
16193;SDS011;8204;53.582;10.080;2023-06-22T02:20:42;6.13;;;5.73;;
16193;SDS011;8204;53.582;10.080;2023-06-22T02:23:08;6.33;;;5.83;;
16193;SDS011;8204;53.582;10.080;2023-06-22T02:25:34;6.87;;;6.27;;
16193;SDS011;8204;53.582;10.080;2023-06-22T02:28:00;7.93;;;6.97;;
16193;SDS011;8204;53.582;10.080;2023-06-22T02:30:26;5.93;;;5.40;;
16193;SDS011;8204;53.582;10.080;2023-06-22T02:32:52;7.10;;;6.50;;
16193;SDS011;8204;53.582;10.080;2023-06-22T02:35:24;6.83;;;6.23;;
16193;SDS011;8204;53.582;10.080;2023-06-22T02:38:00;6.73;;;6.13;;
16193;SDS011;8204;53.582;10.080;2023-06-22T02:40:26;6.90;;;6.30;;
16193;SDS011;8204;53.582;10.080;2023-06-22T02:42:53;6.40;;;5.90;;
16193;SDS011;8204;53.582;10.080;2023-06-22T02:45:19;6.30;;;5.80;;
16193;SDS011;8204;53.582;10.080;2023-06-22T02:47:44;6.83;;;6.33;;
16193;SDS011;8204;53.582;10.080;2023-06-22T02:50:10;7.67;;;6.00;;
16193;SDS011;8204;53.582;10.080;2023-06-22T02:52:36;6.33;;;5.83;;
16193;SDS011;8204;53.582;10.080;2023-06-22T02:55:01;6.77;;;6.27;;
16193;SDS011;8204;53.582;10.080;2023-06-22T02:57:27;6.57;;;6.00;;
16193;SDS011;8204;53.582;10.080;2023-06-22T02:59:53;7.57;;;7.00;;
16193;SDS011;8204;53.582;10.080;2023-06-22T03:02:20;6.60;;;6.10;;
16193;SDS011;8204;53.582;10.080;2023-06-22T03:04:47;6.50;;;6.00;;
16193;SDS011;8204;53.582;10.080;2023-06-22T03:07:19;7.60;;;6.97;;
16193;SDS011;8204;53.582;10.080;2023-06-22T03:09:45;7.03;;;6.53;;
16193;SDS011;8204;53.582;10.080;2023-06-22T03:12:11;7.70;;;7.00;;
16193;SDS011;8204;53.582;10.080;2023-06-22T03:14:36;7.50;;;6.90;;
16193;SDS011;8204;53.582;10.080;2023-06-22T03:17:03;7.03;;;6.53;;
16193;SDS011;8204;53.582;10.080;2023-06-22T03:19:30;8.37;;;7.60;;
16193;SDS011;8204;53.582;10.080;2023-06-22T03:21:57;6.90;;;6.37;;
16193;SDS011;8204;53.582;10.080;2023-06-22T03:24:24;8.27;;;7.50;;
16193;SDS011;8204;53.582;10.080;2023-06-22T03:26:50;8.67;;;6.73;;
16193;SDS011;8204;53.582;10.080;2023-06-22T03:29:16;7.90;;;7.20;;
16193;SDS011;8204;53.582;10.080;2023-06-22T03:31:42;9.33;;;7.47;;
16193;SDS011;8204;53.582;10.080;2023-06-22T03:34:07;8.90;;;7.57;;
16193;SDS011;8204;53.582;10.080;2023-06-22T03:36:33;8.93;;;8.17;;
16193;SDS011;8204;53.582;10.080;2023-06-22T03:38:58;9.23;;;8.33;;
16193;SDS011;8204;53.582;10.080;2023-06-22T03:41:23;9.30;;;8.50;;
16193;SDS011;8204;53.582;10.080;2023-06-22T03:43:49;11.03;;;10.03;;
16193;SDS011;8204;53.582;10.080;2023-06-22T03:46:14;12.13;;;11.10;;
16193;SDS011;8204;53.582;10.080;2023-06-22T03:48:40;10.03;;;9.13;;
16193;SDS011;8204;53.582;10.080;2023-06-22T03:51:05;8.23;;;7.53;;
16193;SDS011;8204;53.582;10.080;2023-06-22T03:53:31;8.93;;;8.13;;
16193;SDS011;8204;53.582;10.080;2023-06-22T03:55:57;7.57;;;6.87;;
16193;SDS011;8204;53.582;10.080;2023-06-22T03:58:22;7.93;;;7.13;;
16193;SDS011;8204;53.582;10.080;2023-06-22T04:00:48;8.83;;;8.13;;
16193;SDS011;8204;53.582;10.080;2023-06-22T04:03:15;7.83;;;7.13;;
16193;SDS011;8204;53.582;10.080;2023-06-22T04:05:41;7.80;;;7.10;;
16193;SDS011;8204;53.582;10.080;2023-06-22T04:08:07;8.17;;;7.43;;
16193;SDS011;8204;53.582;10.080;2023-06-22T04:10:33;8.20;;;7.37;;
16193;SDS011;8204;53.582;10.080;2023-06-22T04:12:59;7.10;;;6.60;;
16193;SDS011;8204;53.582;10.080;2023-06-22T04:15:25;7.60;;;7.00;;
16193;SDS011;8204;53.582;10.080;2023-06-22T04:17:51;7.43;;;6.63;;
16193;SDS011;8204;53.582;10.080;2023-06-22T04:20:16;8.20;;;7.33;;
16193;SDS011;8204;53.582;10.080;2023-06-22T04:22:41;7.40;;;6.87;;
16193;SDS011;8204;53.582;10.080;2023-06-22T04:25:07;8.03;;;7.43;;
16193;SDS011;8204;53.582;10.080;2023-06-22T04:27:33;6.67;;;6.17;;
16193;SDS011;8204;53.582;10.080;2023-06-22T04:30:03;7.57;;;6.87;;
16193;SDS011;8204;53.582;10.080;2023-06-22T04:32:29;8.50;;;7.70;;
16193;SDS011;8204;53.582;10.080;2023-06-22T04:34:55;7.03;;;6.43;;
16193;SDS011;8204;53.582;10.080;2023-06-22T04:37:21;7.77;;;7.10;;
16193;SDS011;8204;53.582;10.080;2023-06-22T04:39:48;7.87;;;7.17;;
16193;SDS011;8204;53.582;10.080;2023-06-22T04:42:14;8.93;;;7.37;;
16193;SDS011;8204;53.582;10.080;2023-06-22T04:44:39;8.17;;;7.47;;
16193;SDS011;8204;53.582;10.080;2023-06-22T04:47:07;10.40;;;7.40;;
16193;SDS011;8204;53.582;10.080;2023-06-22T04:49:34;9.33;;;7.60;;
16193;SDS011;8204;53.582;10.080;2023-06-22T04:52:02;9.40;;;7.13;;
16193;SDS011;8204;53.582;10.080;2023-06-22T04:54:32;8.33;;;7.63;;
16193;SDS011;8204;53.582;10.080;2023-06-22T04:57:02;7.77;;;7.00;;
16193;SDS011;8204;53.582;10.080;2023-06-22T04:59:30;7.87;;;7.00;;
16193;SDS011;8204;53.582;10.080;2023-06-22T05:02:02;8.40;;;7.70;;
16193;SDS011;8204;53.582;10.080;2023-06-22T05:04:28;6.73;;;6.13;;
16193;SDS011;8204;53.582;10.080;2023-06-22T05:06:58;6.97;;;6.20;;
16193;SDS011;8204;53.582;10.080;2023-06-22T05:09:27;7.53;;;6.87;;
16193;SDS011;8204;53.582;10.080;2023-06-22T05:11:53;6.57;;;6.07;;
16193;SDS011;8204;53.582;10.080;2023-06-22T05:14:19;7.87;;;7.17;;
16193;SDS011;8204;53.582;10.080;2023-06-22T05:16:45;7.70;;;6.90;;
16193;SDS011;8204;53.582;10.080;2023-06-22T05:19:11;7.97;;;7.17;;
16193;SDS011;8204;53.582;10.080;2023-06-22T05:21:37;7.53;;;6.90;;
16193;SDS011;8204;53.582;10.080;2023-06-22T05:24:04;7.53;;;6.93;;
16193;SDS011;8204;53.582;10.080;2023-06-22T05:26:30;7.27;;;6.67;;
16193;SDS011;8204;53.582;10.080;2023-06-22T05:28:57;6.53;;;5.93;;
16193;SDS011;8204;53.582;10.080;2023-06-22T05:31:24;10.20;;;7.67;;
16193;SDS011;8204;53.582;10.080;2023-06-22T05:33:51;7.07;;;6.20;;
16193;SDS011;8204;53.582;10.080;2023-06-22T05:36:17;9.13;;;7.97;;
16193;SDS011;8204;53.582;10.080;2023-06-22T05:38:45;7.60;;;6.77;;
16193;SDS011;8204;53.582;10.080;2023-06-22T05:41:11;8.07;;;6.20;;
16193;SDS011;8204;53.582;10.080;2023-06-22T05:43:37;6.80;;;6.10;;
16193;SDS011;8204;53.582;10.080;2023-06-22T05:46:03;6.10;;;5.60;;
16193;SDS011;8204;53.582;10.080;2023-06-22T05:48:30;5.90;;;5.40;;
16193;SDS011;8204;53.582;10.080;2023-06-22T05:50:55;6.03;;;5.53;;
16193;SDS011;8204;53.582;10.080;2023-06-22T05:53:21;5.60;;;5.20;;
16193;SDS011;8204;53.582;10.080;2023-06-22T05:55:47;4.57;;;4.07;;
16193;SDS011;8204;53.582;10.080;2023-06-22T05:58:12;7.60;;;5.83;;
16193;SDS011;8204;53.582;10.080;2023-06-22T06:00:41;7.87;;;5.83;;
16193;SDS011;8204;53.582;10.080;2023-06-22T06:03:07;7.03;;;5.70;;
16193;SDS011;8204;53.582;10.080;2023-06-22T06:05:34;5.50;;;5.00;;
16193;SDS011;8204;53.582;10.080;2023-06-22T06:08:01;4.77;;;4.37;;
16193;SDS011;8204;53.582;10.080;2023-06-22T06:10:29;4.80;;;4.30;;
16193;SDS011;8204;53.582;10.080;2023-06-22T06:12:56;5.60;;;5.07;;
16193;SDS011;8204;53.582;10.080;2023-06-22T06:15:21;5.50;;;4.37;;
16193;SDS011;8204;53.582;10.080;2023-06-22T06:17:47;5.87;;;5.10;;
16193;SDS011;8204;53.582;10.080;2023-06-22T06:20:14;5.27;;;4.83;;
16193;SDS011;8204;53.582;10.080;2023-06-22T06:22:40;5.00;;;4.50;;
16193;SDS011;8204;53.582;10.080;2023-06-22T06:25:07;4.50;;;4.10;;
16193;SDS011;8204;53.582;10.080;2023-06-22T06:27:33;5.03;;;4.63;;
16193;SDS011;8204;53.582;10.080;2023-06-22T06:29:59;4.73;;;4.33;;
16193;SDS011;8204;53.582;10.080;2023-06-22T06:32:24;6.07;;;5.43;;
16193;SDS011;8204;53.582;10.080;2023-06-22T06:34:49;5.67;;;5.13;;
16193;SDS011;8204;53.582;10.080;2023-06-22T06:37:16;5.50;;;5.00;;
16193;SDS011;8204;53.582;10.080;2023-06-22T06:39:43;5.57;;;5.07;;
16193;SDS011;8204;53.582;10.080;2023-06-22T06:42:09;4.60;;;4.20;;
16193;SDS011;8204;53.582;10.080;2023-06-22T06:44:36;5.70;;;4.93;;
16193;SDS011;8204;53.582;10.080;2023-06-22T06:47:03;6.27;;;4.60;;
16193;SDS011;8204;53.582;10.080;2023-06-22T06:49:29;5.33;;;4.63;;
16193;SDS011;8204;53.582;10.080;2023-06-22T06:51:54;5.73;;;4.80;;
16193;SDS011;8204;53.582;10.080;2023-06-22T06:54:21;4.80;;;3.90;;
16193;SDS011;8204;53.582;10.080;2023-06-22T06:56:46;5.37;;;4.50;;
16193;SDS011;8204;53.582;10.080;2023-06-22T06:59:13;4.93;;;4.50;;
16193;SDS011;8204;53.582;10.080;2023-06-22T07:01:39;6.97;;;6.07;;
16193;SDS011;8204;53.582;10.080;2023-06-22T07:04:04;4.83;;;4.43;;
16193;SDS011;8204;53.582;10.080;2023-06-22T07:06:30;5.87;;;4.80;;
16193;SDS011;8204;53.582;10.080;2023-06-22T07:08:57;4.30;;;4.00;;
16193;SDS011;8204;53.582;10.080;2023-06-22T07:11:22;4.87;;;4.47;;
16193;SDS011;8204;53.582;10.080;2023-06-22T07:13:48;5.07;;;4.23;;
16193;SDS011;8204;53.582;10.080;2023-06-22T07:16:13;5.43;;;4.63;;
16193;SDS011;8204;53.582;10.080;2023-06-22T07:18:39;5.23;;;4.47;;
16193;SDS011;8204;53.582;10.080;2023-06-22T07:21:05;7.17;;;4.10;;
16193;SDS011;8204;53.582;10.080;2023-06-22T07:23:32;5.50;;;4.93;;
16193;SDS011;8204;53.582;10.080;2023-06-22T07:25:57;5.47;;;4.27;;
16193;SDS011;8204;53.582;10.080;2023-06-22T07:28:23;5.10;;;4.60;;
16193;SDS011;8204;53.582;10.080;2023-06-22T07:30:48;4.83;;;3.87;;
16193;SDS011;8204;53.582;10.080;2023-06-22T07:33:13;5.63;;;5.07;;
16193;SDS011;8204;53.582;10.080;2023-06-22T07:35:39;4.63;;;4.23;;
16193;SDS011;8204;53.582;10.080;2023-06-22T07:38:04;4.87;;;4.30;;
16193;SDS011;8204;53.582;10.080;2023-06-22T07:40:30;4.83;;;4.33;;
16193;SDS011;8204;53.582;10.080;2023-06-22T07:42:55;5.87;;;4.40;;
16193;SDS011;8204;53.582;10.080;2023-06-22T07:45:21;6.73;;;4.27;;
16193;SDS011;8204;53.582;10.080;2023-06-22T07:47:51;4.83;;;4.43;;
16193;SDS011;8204;53.582;10.080;2023-06-22T07:50:16;4.70;;;4.30;;
16193;SDS011;8204;53.582;10.080;2023-06-22T07:52:42;4.97;;;4.50;;
16193;SDS011;8204;53.582;10.080;2023-06-22T07:55:07;5.50;;;5.10;;
16193;SDS011;8204;53.582;10.080;2023-06-22T07:57:33;5.03;;;4.63;;
16193;SDS011;8204;53.582;10.080;2023-06-22T07:59:59;5.13;;;4.63;;
16193;SDS011;8204;53.582;10.080;2023-06-22T08:02:25;5.23;;;4.70;;
16193;SDS011;8204;53.582;10.080;2023-06-22T08:04:52;6.37;;;4.57;;
16193;SDS011;8204;53.582;10.080;2023-06-22T08:07:17;4.80;;;4.03;;
16193;SDS011;8204;53.582;10.080;2023-06-22T08:09:47;4.47;;;4.03;;
16193;SDS011;8204;53.582;10.080;2023-06-22T08:12:14;4.50;;;4.10;;
16193;SDS011;8204;53.582;10.080;2023-06-22T08:14:41;5.13;;;4.70;;
16193;SDS011;8204;53.582;10.080;2023-06-22T08:17:08;4.90;;;4.50;;
16193;SDS011;8204;53.582;10.080;2023-06-22T08:19:34;4.43;;;4.13;;
16193;SDS011;8204;53.582;10.080;2023-06-22T08:22:00;4.47;;;4.07;;
16193;SDS011;8204;53.582;10.080;2023-06-22T08:24:26;8.63;;;7.87;;
16193;SDS011;8204;53.582;10.080;2023-06-22T08:26:55;6.90;;;5.40;;
16193;SDS011;8204;53.582;10.080;2023-06-22T08:29:20;5.53;;;5.03;;
16193;SDS011;8204;53.582;10.080;2023-06-22T08:31:46;4.10;;;3.70;;
16193;SDS011;8204;53.582;10.080;2023-06-22T08:34:11;4.97;;;4.57;;
16193;SDS011;8204;53.582;10.080;2023-06-22T08:36:37;7.53;;;4.33;;
16193;SDS011;8204;53.582;10.080;2023-06-22T08:39:07;5.07;;;4.67;;
16193;SDS011;8204;53.582;10.080;2023-06-22T08:41:33;5.27;;;4.70;;
16193;SDS011;8204;53.582;10.080;2023-06-22T08:43:58;4.37;;;3.97;;
16193;SDS011;8204;53.582;10.080;2023-06-22T08:46:25;4.43;;;3.80;;
16193;SDS011;8204;53.582;10.080;2023-06-22T08:48:56;4.80;;;4.40;;
16193;SDS011;8204;53.582;10.080;2023-06-22T08:51:23;4.73;;;3.93;;
16193;SDS011;8204;53.582;10.080;2023-06-22T08:53:49;4.93;;;4.47;;
16193;SDS011;8204;53.582;10.080;2023-06-22T08:56:14;7.10;;;5.10;;
16193;SDS011;8204;53.582;10.080;2023-06-22T08:58:39;4.77;;;4.27;;
16193;SDS011;8204;53.582;10.080;2023-06-22T09:01:05;4.17;;;3.83;;
16193;SDS011;8204;53.582;10.080;2023-06-22T09:03:31;4.47;;;4.07;;
16193;SDS011;8204;53.582;10.080;2023-06-22T09:05:57;5.03;;;4.63;;
16193;SDS011;8204;53.582;10.080;2023-06-22T09:08:24;5.23;;;3.77;;
16193;SDS011;8204;53.582;10.080;2023-06-22T09:10:50;4.83;;;4.43;;
16193;SDS011;8204;53.582;10.080;2023-06-22T09:13:16;4.73;;;4.20;;
16193;SDS011;8204;53.582;10.080;2023-06-22T09:15:42;4.87;;;4.47;;
16193;SDS011;8204;53.582;10.080;2023-06-22T09:18:09;4.57;;;4.17;;
16193;SDS011;8204;53.582;10.080;2023-06-22T09:20:36;4.00;;;3.70;;
16193;SDS011;8204;53.582;10.080;2023-06-22T09:23:02;4.83;;;3.53;;
16193;SDS011;8204;53.582;10.080;2023-06-22T09:25:27;5.17;;;3.37;;
16193;SDS011;8204;53.582;10.080;2023-06-22T09:27:53;3.60;;;3.30;;
16193;SDS011;8204;53.582;10.080;2023-06-22T09:30:19;5.83;;;4.30;;
16193;SDS011;8204;53.582;10.080;2023-06-22T09:32:44;3.17;;;2.87;;
16193;SDS011;8204;53.582;10.080;2023-06-22T09:35:10;5.23;;;4.50;;
16193;SDS011;8204;53.582;10.080;2023-06-22T09:37:37;4.33;;;4.03;;
16193;SDS011;8204;53.582;10.080;2023-06-22T09:40:03;5.50;;;5.00;;
16193;SDS011;8204;53.582;10.080;2023-06-22T09:42:36;4.60;;;4.30;;
16193;SDS011;8204;53.582;10.080;2023-06-22T09:45:01;4.67;;;4.23;;
16193;SDS011;8204;53.582;10.080;2023-06-22T09:47:28;5.23;;;4.20;;
16193;SDS011;8204;53.582;10.080;2023-06-22T09:49:54;4.30;;;3.90;;
16193;SDS011;8204;53.582;10.080;2023-06-22T09:52:21;4.47;;;3.97;;
16193;SDS011;8204;53.582;10.080;2023-06-22T09:54:47;4.73;;;4.33;;
16193;SDS011;8204;53.582;10.080;2023-06-22T09:57:13;4.63;;;4.27;;
16193;SDS011;8204;53.582;10.080;2023-06-22T09:59:38;4.63;;;4.27;;
16193;SDS011;8204;53.582;10.080;2023-06-22T10:02:06;4.30;;;4.00;;
16193;SDS011;8204;53.582;10.080;2023-06-22T10:04:33;4.80;;;4.47;;
16193;SDS011;8204;53.582;10.080;2023-06-22T10:06:59;3.97;;;3.67;;
16193;SDS011;8204;53.582;10.080;2023-06-22T10:09:25;4.57;;;4.17;;
16193;SDS011;8204;53.582;10.080;2023-06-22T10:11:51;8.17;;;4.80;;
16193;SDS011;8204;53.582;10.080;2023-06-22T10:14:16;4.43;;;4.13;;
16193;SDS011;8204;53.582;10.080;2023-06-22T10:16:43;5.03;;;4.07;;
16193;SDS011;8204;53.582;10.080;2023-06-22T10:19:09;3.27;;;3.03;;
16193;SDS011;8204;53.582;10.080;2023-06-22T10:21:38;4.30;;;4.00;;
16193;SDS011;8204;53.582;10.080;2023-06-22T10:24:03;5.40;;;4.87;;
16193;SDS011;8204;53.582;10.080;2023-06-22T10:26:32;4.90;;;4.50;;
16193;SDS011;8204;53.582;10.080;2023-06-22T10:28:57;5.07;;;4.60;;
16193;SDS011;8204;53.582;10.080;2023-06-22T10:31:23;4.83;;;4.43;;
16193;SDS011;8204;53.582;10.080;2023-06-22T10:33:48;4.63;;;4.33;;
16193;SDS011;8204;53.582;10.080;2023-06-22T10:36:15;3.97;;;3.67;;
16193;SDS011;8204;53.582;10.080;2023-06-22T10:38:41;3.87;;;3.67;;
16193;SDS011;8204;53.582;10.080;2023-06-22T10:41:06;4.73;;;4.27;;
16193;SDS011;8204;53.582;10.080;2023-06-22T10:43:32;4.53;;;4.23;;
16193;SDS011;8204;53.582;10.080;2023-06-22T10:45:57;4.50;;;4.10;;
16193;SDS011;8204;53.582;10.080;2023-06-22T10:48:23;4.97;;;4.57;;
16193;SDS011;8204;53.582;10.080;2023-06-22T10:50:48;4.50;;;4.13;;
16193;SDS011;8204;53.582;10.080;2023-06-22T10:53:14;4.73;;;4.33;;
16193;SDS011;8204;53.582;10.080;2023-06-22T10:55:39;4.73;;;4.43;;
16193;SDS011;8204;53.582;10.080;2023-06-22T10:58:04;4.80;;;4.40;;
16193;SDS011;8204;53.582;10.080;2023-06-22T11:00:30;5.07;;;4.67;;
16193;SDS011;8204;53.582;10.080;2023-06-22T11:02:55;6.37;;;5.17;;
16193;SDS011;8204;53.582;10.080;2023-06-22T11:05:21;5.07;;;4.67;;
16193;SDS011;8204;53.582;10.080;2023-06-22T11:07:47;5.23;;;4.80;;
16193;SDS011;8204;53.582;10.080;2023-06-22T11:10:14;4.83;;;4.53;;
16193;SDS011;8204;53.582;10.080;2023-06-22T11:12:39;5.73;;;5.20;;
16193;SDS011;8204;53.582;10.080;2023-06-22T11:15:05;4.70;;;4.40;;
16193;SDS011;8204;53.582;10.080;2023-06-22T11:17:32;5.53;;;5.13;;
16193;SDS011;8204;53.582;10.080;2023-06-22T11:19:57;5.37;;;4.90;;
16193;SDS011;8204;53.582;10.080;2023-06-22T11:22:24;6.27;;;5.67;;
16193;SDS011;8204;53.582;10.080;2023-06-22T11:24:49;5.40;;;4.90;;
16193;SDS011;8204;53.582;10.080;2023-06-22T11:27:15;5.80;;;5.23;;
16193;SDS011;8204;53.582;10.080;2023-06-22T11:29:40;6.20;;;5.70;;
16193;SDS011;8204;53.582;10.080;2023-06-22T11:32:06;6.30;;;5.83;;
16193;SDS011;8204;53.582;10.080;2023-06-22T11:34:32;6.43;;;5.90;;
16193;SDS011;8204;53.582;10.080;2023-06-22T11:36:58;4.67;;;4.37;;
16193;SDS011;8204;53.582;10.080;2023-06-22T11:39:23;5.70;;;5.30;;
16193;SDS011;8204;53.582;10.080;2023-06-22T11:41:48;4.50;;;4.30;;
16193;SDS011;8204;53.582;10.080;2023-06-22T11:44:14;5.93;;;5.53;;
16193;SDS011;8204;53.582;10.080;2023-06-22T11:46:39;6.60;;;6.00;;
16193;SDS011;8204;53.582;10.080;2023-06-22T11:49:04;6.00;;;5.60;;
16193;SDS011;8204;53.582;10.080;2023-06-22T11:51:30;5.87;;;5.40;;
16193;SDS011;8204;53.582;10.080;2023-06-22T11:53:56;5.43;;;5.07;;
16193;SDS011;8204;53.582;10.080;2023-06-22T11:56:22;5.83;;;5.40;;
16193;SDS011;8204;53.582;10.080;2023-06-22T11:58:48;6.10;;;5.60;;
16193;SDS011;8204;53.582;10.080;2023-06-22T12:01:14;6.43;;;5.63;;
16193;SDS011;8204;53.582;10.080;2023-06-22T12:03:40;6.00;;;5.50;;
16193;SDS011;8204;53.582;10.080;2023-06-22T12:06:08;6.60;;;6.10;;
16193;SDS011;8204;53.582;10.080;2023-06-22T12:08:35;5.53;;;5.13;;
16193;SDS011;8204;53.582;10.080;2023-06-22T12:11:01;5.13;;;4.70;;
16193;SDS011;8204;53.582;10.080;2023-06-22T12:13:27;6.10;;;5.70;;
16193;SDS011;8204;53.582;10.080;2023-06-22T12:15:53;13.73;;;5.77;;
16193;SDS011;8204;53.582;10.080;2023-06-22T12:18:18;5.50;;;5.10;;
16193;SDS011;8204;53.582;10.080;2023-06-22T12:20:46;5.60;;;5.23;;
16193;SDS011;8204;53.582;10.080;2023-06-22T12:23:12;5.80;;;5.40;;
16193;SDS011;8204;53.582;10.080;2023-06-22T12:25:37;7.53;;;6.40;;
16193;SDS011;8204;53.582;10.080;2023-06-22T12:28:03;6.53;;;6.03;;
16193;SDS011;8204;53.582;10.080;2023-06-22T12:30:30;6.07;;;5.63;;
16193;SDS011;8204;53.582;10.080;2023-06-22T12:32:58;6.27;;;5.67;;
16193;SDS011;8204;53.582;10.080;2023-06-22T12:35:23;5.80;;;5.33;;
16193;SDS011;8204;53.582;10.080;2023-06-22T12:37:49;6.80;;;5.77;;
16193;SDS011;8204;53.582;10.080;2023-06-22T12:40:15;8.97;;;5.90;;
16193;SDS011;8204;53.582;10.080;2023-06-22T12:42:40;6.10;;;5.60;;
16193;SDS011;8204;53.582;10.080;2023-06-22T12:45:06;5.60;;;5.23;;
16193;SDS011;8204;53.582;10.080;2023-06-22T12:47:32;5.90;;;5.50;;
16193;SDS011;8204;53.582;10.080;2023-06-22T12:49:58;7.43;;;6.83;;
16193;SDS011;8204;53.582;10.080;2023-06-22T12:52:23;6.67;;;6.17;;
16193;SDS011;8204;53.582;10.080;2023-06-22T12:54:49;7.43;;;6.87;;
16193;SDS011;8204;53.582;10.080;2023-06-22T12:57:14;6.20;;;5.40;;
16193;SDS011;8204;53.582;10.080;2023-06-22T12:59:39;5.60;;;5.20;;
16193;SDS011;8204;53.582;10.080;2023-06-22T13:02:05;6.13;;;5.73;;
16193;SDS011;8204;53.582;10.080;2023-06-22T13:04:31;7.57;;;6.90;;
16193;SDS011;8204;53.582;10.080;2023-06-22T13:06:57;6.37;;;5.90;;
16193;SDS011;8204;53.582;10.080;2023-06-22T13:09:27;6.60;;;5.70;;
16193;SDS011;8204;53.582;10.080;2023-06-22T13:11:53;5.67;;;5.30;;
16193;SDS011;8204;53.582;10.080;2023-06-22T13:14:18;6.13;;;5.53;;
16193;SDS011;8204;53.582;10.080;2023-06-22T13:16:44;8.47;;;7.87;;
16193;SDS011;8204;53.582;10.080;2023-06-22T13:19:10;6.97;;;6.47;;
16193;SDS011;8204;53.582;10.080;2023-06-22T13:21:35;6.83;;;6.33;;
16193;SDS011;8204;53.582;10.080;2023-06-22T13:24:00;6.30;;;5.80;;
16193;SDS011;8204;53.582;10.080;2023-06-22T13:26:26;6.23;;;5.77;;
16193;SDS011;8204;53.582;10.080;2023-06-22T13:28:53;5.77;;;5.43;;
16193;SDS011;8204;53.582;10.080;2023-06-22T13:31:19;6.73;;;6.20;;
16193;SDS011;8204;53.582;10.080;2023-06-22T13:33:45;5.80;;;5.40;;
16193;SDS011;8204;53.582;10.080;2023-06-22T13:36:13;7.27;;;6.70;;
16193;SDS011;8204;53.582;10.080;2023-06-22T13:38:40;6.13;;;5.73;;
16193;SDS011;8204;53.582;10.080;2023-06-22T13:41:06;7.87;;;6.20;;
16193;SDS011;8204;53.582;10.080;2023-06-22T13:43:31;6.17;;;5.70;;
16193;SDS011;8204;53.582;10.080;2023-06-22T13:45:57;6.30;;;5.90;;
16193;SDS011;8204;53.582;10.080;2023-06-22T13:48:23;6.77;;;6.10;;
16193;SDS011;8204;53.582;10.080;2023-06-22T13:50:51;6.30;;;5.80;;
16193;SDS011;8204;53.582;10.080;2023-06-22T13:53:17;6.27;;;5.83;;
16193;SDS011;8204;53.582;10.080;2023-06-22T13:55:43;6.03;;;5.63;;
16193;SDS011;8204;53.582;10.080;2023-06-22T13:58:08;6.57;;;6.07;;
16193;SDS011;8204;53.582;10.080;2023-06-22T14:00:34;5.83;;;5.43;;
16193;SDS011;8204;53.582;10.080;2023-06-22T14:02:59;6.00;;;5.50;;
16193;SDS011;8204;53.582;10.080;2023-06-22T14:05:25;7.23;;;6.73;;
16193;SDS011;8204;53.582;10.080;2023-06-22T14:07:51;5.63;;;5.27;;
16193;SDS011;8204;53.582;10.080;2023-06-22T14:10:17;6.40;;;5.80;;
16193;SDS011;8204;53.582;10.080;2023-06-22T14:12:43;6.73;;;6.17;;
16193;SDS011;8204;53.582;10.080;2023-06-22T14:15:10;5.90;;;5.43;;
16193;SDS011;8204;53.582;10.080;2023-06-22T14:17:35;6.40;;;5.90;;
16193;SDS011;8204;53.582;10.080;2023-06-22T14:20:00;6.43;;;5.77;;
16193;SDS011;8204;53.582;10.080;2023-06-22T14:22:26;6.60;;;6.10;;
16193;SDS011;8204;53.582;10.080;2023-06-22T14:24:54;5.53;;;5.13;;
16193;SDS011;8204;53.582;10.080;2023-06-22T14:27:21;5.97;;;5.57;;
16193;SDS011;8204;53.582;10.080;2023-06-22T14:29:47;5.47;;;5.07;;
16193;SDS011;8204;53.582;10.080;2023-06-22T14:32:13;5.90;;;5.50;;
16193;SDS011;8204;53.582;10.080;2023-06-22T14:34:39;6.13;;;5.70;;
16193;SDS011;8204;53.582;10.080;2023-06-22T14:37:06;7.30;;;6.77;;
16193;SDS011;8204;53.582;10.080;2023-06-22T14:39:33;6.37;;;5.80;;
16193;SDS011;8204;53.582;10.080;2023-06-22T14:42:00;6.43;;;5.90;;
16193;SDS011;8204;53.582;10.080;2023-06-22T14:44:26;6.40;;;6.00;;
16193;SDS011;8204;53.582;10.080;2023-06-22T14:46:54;6.80;;;6.40;;
16193;SDS011;8204;53.582;10.080;2023-06-22T14:49:22;6.17;;;5.67;;
16193;SDS011;8204;53.582;10.080;2023-06-22T14:51:47;6.80;;;6.37;;
16193;SDS011;8204;53.582;10.080;2023-06-22T14:54:13;7.50;;;6.90;;
16193;SDS011;8204;53.582;10.080;2023-06-22T14:56:39;7.63;;;6.93;;
16193;SDS011;8204;53.582;10.080;2023-06-22T14:59:06;7.50;;;6.90;;
16193;SDS011;8204;53.582;10.080;2023-06-22T15:01:32;7.53;;;6.83;;
16193;SDS011;8204;53.582;10.080;2023-06-22T15:03:58;8.07;;;7.37;;
16193;SDS011;8204;53.582;10.080;2023-06-22T15:06:23;7.33;;;6.73;;
16193;SDS011;8204;53.582;10.080;2023-06-22T15:08:50;6.77;;;6.27;;
16193;SDS011;8204;53.582;10.080;2023-06-22T15:11:15;7.27;;;6.73;;
16193;SDS011;8204;53.582;10.080;2023-06-22T15:13:41;6.83;;;6.33;;
16193;SDS011;8204;53.582;10.080;2023-06-22T15:16:07;7.60;;;6.97;;
16193;SDS011;8204;53.582;10.080;2023-06-22T15:18:33;7.37;;;6.87;;
16193;SDS011;8204;53.582;10.080;2023-06-22T15:21:01;7.53;;;6.83;;
16193;SDS011;8204;53.582;10.080;2023-06-22T15:23:28;6.67;;;6.27;;
16193;SDS011;8204;53.582;10.080;2023-06-22T15:25:55;7.77;;;7.17;;
16193;SDS011;8204;53.582;10.080;2023-06-22T15:28:23;7.47;;;6.87;;
16193;SDS011;8204;53.582;10.080;2023-06-22T15:30:50;8.10;;;7.30;;
16193;SDS011;8204;53.582;10.080;2023-06-22T15:33:17;6.73;;;6.17;;
16193;SDS011;8204;53.582;10.080;2023-06-22T15:35:43;7.17;;;6.67;;
16193;SDS011;8204;53.582;10.080;2023-06-22T15:38:09;6.70;;;6.20;;
16193;SDS011;8204;53.582;10.080;2023-06-22T15:40:35;6.37;;;5.97;;
16193;SDS011;8204;53.582;10.080;2023-06-22T15:43:01;6.80;;;6.30;;